Terminal Aerodrome Forecast
Issued by NWS

Current Version | Previous Version | Text Only | Print | Product List | Glossary Off
Versions: 1 2 3 4 5 6 7 8 9 10 11 12 13 14 15 16 17 18 19 20 21

000
FTUS41 KILN 261130
TAFLUK
TAF
KLUK 261130Z 2612/2712 17006KT P6SM -RA FEW025 OVC045
      TEMPO 2612/2616 5SM SHRA OVC025
     FM261600 18009KT P6SM -SHRA VCTS OVC035CB
      TEMPO 2617/2621 3SM SHRA OVC025
     FM262100 20008KT P6SM VCSH BKN050
     FM270400 23006KT P6SM BKN070
     FM270900 VRB03KT P6SM BKN035=

USA.gov is the U.S. government's official web portal to all federal, state and local government web resources and services.